Ludlow, Pennsylvania
Current Conditions -  °F | °C
As of 6:53 PM on Friday 28 Nov 2014 (Local Time) from KBFD Reporting Station
Broken Clouds Broken Clouds  
Wind Chill: 20°   Ceiling: 2400
Heat Index: 20°   Visibility: 10mi
Dew Point: 10°   Wind: 0mph
Humidity: 65%   Direction: NA
Pressure: 30.14"   Gusts: NA
Location:  41.73°N, 78.94°W
Report Text: KBFD 282353Z AUTO 00000KT 10SM BKN024 BKN100 M07/M12 A3014 RMK AO2 SLP237 T10671122 11050 21078 53001
Loading
Personal Weather Stations






























Interactive Weather Map New forecast layout! Learn more

10-Day Weather Forecast

Advertisements
Track Severe Weather on mobile